EVRA/RIX METAR and TAF weather

Enter ICAO airport designator
Station Type Date Time Source
EVRA METAR 2020/07/11 20:50 UTC NOAA

EVRA 112050Z 20003KT CAVOK 13/10 Q1017 NOSIG


Station Type Date Time Source
EVRA Decoded METAR 2020/07/11 20:50 UTC NOAA

Riga International Airport, Latvia (EVRA) 56-55N 023-58E
Jul 11, 2020 - 04:50 PM EDT / 2020.07.11 2050 UTC
Wind: from the SSW (200 degrees) at 3 MPH (3 KT):0
Visibility: greater than 7 mile(s):0
Temperature: 55 F (13 C)
Dew Point: 50 F (10 C)
Relative Humidity: 81%
Pressure (altimeter): 30.03 in. Hg (1017 hPa)
ob: EVRA 112050Z 20003KT CAVOK 13/10 Q1017 NOSIG
cycle: 21

Station Type Date Time Source
EVRA TAF 2020/07/11 21:09 UTC NOAA

TAF EVRA 112000Z 1121/1221 23007KT 9999 BKN030

Example: see airport list